Time;durP1;ratioP1;P1;durP2;ratioP2;P2;SDS_P1;SDS_P2;PMS_P1;PMS_P2;Temp;Humidity;BMP_temperature;BMP_pressure;BME280_temperature;BME280_humidity;BME280_pressure;Samples;Min_cycle;Max_cycle;Signal;HPM_P1;HPM_P2
2023/11/23 00:00:23;;;;;;;0.70;0.70;;;;;;;-1.07;100.00;96810.25;1034174;28;20533;-74
2023/11/23 00:00:54;;;;;;;0.82;0.82;;;;;;;-1.12;100.00;96808.16;1030560;28;20116;-73
2023/11/23 00:01:24;;;;;;;1.90;1.50;;;;;;;-1.13;100.00;96806.56;1029806;28;20029;-72
2023/11/23 00:01:55;;;;;;;1.70;1.13;;;;;;;-1.14;100.00;96812.69;1030304;28;20033;-74
2023/11/23 00:02:25;;;;;;;0.70;0.70;;;;;;;-1.16;100.00;96803.50;1030662;28;20022;-75
2023/11/23 00:02:56;;;;;;;1.23;1.08;;;;;;;-1.17;100.00;96804.44;1034640;28;20033;-75
2023/11/23 00:03:26;;;;;;;3.28;2.38;;;;;;;-1.18;100.00;96806.22;1030389;28;20078;-73
2023/11/23 00:03:56;;;;;;;1.65;0.90;;;;;;;-1.20;100.00;96801.25;1030580;28;20679;-75
2023/11/23 00:04:27;;;;;;;0.85;0.80;;;;;;;-1.40;100.00;96774.22;1034516;28;20041;-73
2023/11/23 00:04:57;;;;;;;1.08;1.02;;;;;;;-1.27;100.00;96794.34;1038767;28;20125;-74
2023/11/23 00:05:28;;;;;;;1.45;1.02;;;;;;;-1.23;100.00;96800.78;1034396;28;20540;-74
2023/11/23 00:05:59;;;;;;;4.28;1.64;;;;;;;-1.23;100.00;96800.78;1034845;28;20397;-73
2023/11/23 00:06:29;;;;;;;1.05;1.05;;;;;;;-1.25;100.00;96798.34;1038770;28;20037;-75
2023/11/23 00:07:02;;;;;;;0.40;0.40;;;;;;;-1.30;100.00;96785.16;1038608;28;20480;-73
2023/11/23 00:07:33;;;;;;;2.36;1.90;;;;;;;-1.27;100.00;96790.00;1030327;28;20038;-73
2023/11/23 00:08:03;;;;;;;2.10;1.40;;;;;;;-1.32;100.00;96792.22;1026409;28;20043;-72
2023/11/23 00:08:34;;;;;;;2.70;1.95;;;;;;;-1.33;100.00;96785.47;1026272;28;20054;-72
2023/11/23 00:09:07;;;;;;;0.55;0.55;;;;;;;-1.25;100.00;96795.75;1030455;28;20033;-74
2023/11/23 00:09:37;;;;;;;1.20;1.12;;;;;;;-1.31;100.00;96793.88;1031228;28;20034;-74
2023/11/23 00:10:10;;;;;;;1.30;1.20;;;;;;;-1.23;100.00;96801.56;1035442;28;20028;-74
2023/11/23 00:10:40;;;;;;;1.54;1.16;;;;;;;-1.25;100.00;96805.25;1035198;28;20536;-73
2023/11/23 00:11:11;;;;;;;1.10;1.05;;;;;;;-1.25;100.00;96802.69;1038593;28;20029;-75
2023/11/23 00:11:41;;;;;;;4.38;1.63;;;;;;;-1.25;100.00;96807.84;1038567;28;20750;-73
2023/11/23 00:12:12;;;;;;;0.52;0.52;;;;;;;-1.25;100.00;96808.63;1037609;28;20754;-73
2023/11/23 00:12:42;;;;;;;0.65;0.65;;;;;;;-1.39;100.00;96783.56;1042018;28;20196;-76
2023/11/23 00:13:13;;;;;;;1.90;1.55;;;;;;;-1.27;100.00;96809.78;1036019;28;20037;-74
2023/11/23 00:13:43;;;;;;;3.78;2.92;;;;;;;-1.25;100.00;96807.84;1034916;28;20041;-74
2023/11/23 00:14:13;;;;;;;0.32;0.30;;;;;;;-1.34;100.00;96796.75;1037476;28;20042;-73
2023/11/23 00:14:44;;;;;;;0.30;0.30;;;;;;;-1.28;100.00;96810.72;1034602;28;20402;-73
2023/11/23 00:15:15;;;;;;;0.25;0.25;;;;;;;-1.31;100.00;96811.88;1033152;28;20056;-74
2023/11/23 00:15:46;;;;;;;0.46;0.46;;;;;;;-1.31;100.00;96829.06;1033653;28;20022;-73
2023/11/23 00:16:17;;;;;;;0.70;0.68;;;;;;;-1.30;100.00;96821.19;1031627;28;20532;-74
2023/11/23 00:16:47;;;;;;;2.30;2.15;;;;;;;-1.30;100.00;96831.50;1030295;28;20038;-73
2023/11/23 00:17:18;;;;;;;1.05;1.00;;;;;;;-1.49;100.00;96801.72;1030375;28;20030;-73
2023/11/23 00:17:49;;;;;;;1.75;1.65;;;;;;;-1.27;100.00;96827.81;1026327;28;20098;-74
2023/11/23 00:18:19;;;;;;;0.73;0.73;;;;;;;-1.30;100.00;96821.19;1026801;28;20597;-75
2023/11/23 00:18:49;;;;;;;1.13;1.08;;;;;;;-1.27;100.00;96836.34;1035995;28;20026;-74
2023/11/23 00:19:20;;;;;;;2.72;2.05;;;;;;;-1.35;100.00;96814.91;1038729;28;20040;-74
2023/11/23 00:19:50;;;;;;;1.33;1.23;;;;;;;-1.26;100.00;96835.34;1034205;28;20481;-73
2023/11/23 00:20:21;;;;;;;0.93;0.93;;;;;;;-1.27;100.00;96826.03;1030483;28;20022;-74
2023/11/23 00:20:51;;;;;;;1.63;1.50;;;;;;;-1.36;100.00;96824.41;1030263;28;20034;-74
2023/11/23 00:21:22;;;;;;;0.88;0.80;;;;;;;-1.29;100.00;96824.56;1034036;28;20022;-73
2023/11/23 00:21:52;;;;;;;0.90;0.80;;;;;;;-1.35;100.00;96818.28;1034517;28;20429;-73
2023/11/23 00:22:23;;;;;;;2.00;1.40;;;;;;;-1.35;100.00;96814.91;1031760;28;20038;-74
2023/11/23 00:22:53;;;;;;;2.17;2.00;;;;;;;-1.31;100.00;96816.19;1026646;28;20054;-73
2023/11/23 00:23:24;;;;;;;1.52;1.42;;;;;;;-1.27;100.00;96830.38;1026460;28;20026;-73
2023/11/23 00:23:54;;;;;;;2.70;1.67;;;;;;;-1.28;100.00;96824.41;1030292;28;20061;-75
2023/11/23 00:24:25;;;;;;;1.52;1.17;;;;;;;-1.30;100.00;96830.69;1026333;28;20517;-74
2023/11/23 00:24:55;;;;;;;1.42;1.33;;;;;;;-1.37;100.00;96825.38;1026410;28;20050;-74
2023/11/23 00:25:27;;;;;;;1.60;1.50;;;;;;;-1.28;100.00;96831.31;1030514;28;20029;-74
2023/11/23 00:25:57;;;;;;;2.02;1.84;;;;;;;-1.30;100.00;96826.34;1034004;28;20158;-73
2023/11/23 00:26:31;;;;;;;0.72;0.72;;;;;;;-1.31;100.00;96827.31;1035112;28;20026;-75
2023/11/23 00:27:03;;;;;;;2.32;1.10;;;;;;;-1.30;100.00;96834.06;1035301;28;20026;-74
2023/11/23 00:27:34;;;;;;;0.70;0.66;;;;;;;-1.50;100.00;96799.31;1034256;28;20124;-73
2023/11/23 00:28:08;;;;;;;1.77;0.80;;;;;;;-1.31;100.00;96840.19;1035510;28;20092;-73
2023/11/23 00:28:38;;;;;;;1.98;1.82;;;;;;;-1.30;100.00;96835.84;1039190;28;20112;-74
2023/11/23 00:29:09;;;;;;;0.20;0.20;;;;;;;-1.45;100.00;96817.66;1036679;28;20017;-74
2023/11/23 00:29:40;;;;;;;4.80;2.42;;;;;;;-1.38;100.00;96821.19;1026419;28;20510;-75
2023/11/23 00:30:11;;;;;;;1.48;1.38;;;;;;;-1.38;100.00;96828.09;1027054;28;20027;-74
2023/11/23 00:30:42;;;;;;;1.67;1.58;;;;;;;-1.39;100.00;96826.50;1031010;28;20574;-74
2023/11/23 00:31:12;;;;;;;0.45;0.35;;;;;;;-1.36;100.00;96836.50;1026764;28;20137;-74
2023/11/23 00:31:43;;;;;;;3.97;1.60;;;;;;;-1.29;100.00;96838.25;1026295;28;20506;-74
2023/11/23 00:32:13;;;;;;;0.90;0.90;;;;;;;-1.29;100.00;96847.75;1026762;28;20023;-74
2023/11/23 00:32:44;;;;;;;1.85;1.17;;;;;;;-1.32;100.00;96836.00;1026701;28;20026;-72
2023/11/23 00:33:14;;;;;;;1.83;1.63;;;;;;;-1.27;100.00;96838.91;1030815;28;20438;-73
2023/11/23 00:33:51;;;;;;;3.03;1.02;;;;;;;-1.24;100.00;96843.75;1026665;28;20035;-73
2023/11/23 00:34:21;;;;;;;1.28;1.18;;;;;;;-1.24;100.00;96846.31;1029043;28;20034;-74
2023/11/23 00:34:54;;;;;;;1.23;1.13;;;;;;;-1.26;100.00;96837.94;1031358;28;20030;-76
2023/11/23 00:35:25;;;;;;;0.70;0.70;;;;;;;-1.17;100.00;96843.06;1034539;28;20521;-74
2023/11/23 00:35:55;;;;;;;0.55;0.55;;;;;;;-1.13;100.00;96846.94;1034035;28;20030;-75
2023/11/23 00:36:26;;;;;;;0.35;0.35;;;;;;;-1.19;100.00;96832.94;1034437;28;20025;-73
2023/11/23 00:36:56;;;;;;;0.45;0.45;;;;;;;-1.11;100.00;96850.16;1034560;28;20041;-74
2023/11/23 00:37:28;;;;;;;1.40;1.08;;;;;;;-1.08;100.00;96849.84;1034496;28;20465;-74
2023/11/23 00:38:10;;;;;;;1.80;1.70;;;;;;;-1.07;100.00;96846.31;1034712;28;20521;-74
2023/11/23 00:38:47;;;;;;;1.70;1.60;;;;;;;-1.05;100.00;96850.31;1026386;28;20031;-73
2023/11/23 00:39:18;;;;;;;0.44;0.44;;;;;;;-1.03;100.00;96852.75;1028831;28;20072;-74
2023/11/23 00:39:48;;;;;;;0.90;0.90;;;;;;;-1.00;100.00;96863.53;1026269;28;20116;-73
2023/11/23 00:40:33;;;;;;;0.90;0.72;;;;;;;-1.00;100.00;96868.69;1028910;28;20046;-74
2023/11/23 00:41:06;;;;;;;0.48;0.48;;;;;;;-0.97;100.00;96867.56;1034688;28;20648;-73
2023/11/23 00:41:37;;;;;;;0.44;0.40;;;;;;;-0.97;100.00;96859.81;1036364;28;20544;-74
2023/11/23 00:42:07;;;;;;;5.00;1.35;;;;;;;-0.95;100.00;96865.59;1030330;28;20030;-73
2023/11/23 00:42:38;;;;;;;1.08;1.02;;;;;;;-0.94;100.00;96864.63;1031888;28;20108;-76
2023/11/23 00:43:10;;;;;;;1.75;1.65;;;;;;;-1.02;100.00;96854.34;1034308;28;20065;-74
2023/11/23 00:43:41;;;;;;;0.64;0.64;;;;;;;-0.98;100.00;96855.63;1035159;28;20034;-73
2023/11/23 00:44:11;;;;;;;0.85;0.85;;;;;;;-0.91;100.00;96861.72;1038672;28;20040;-74
2023/11/23 00:44:42;;;;;;;0.30;0.30;;;;;;;-0.98;100.00;96859.00;1038739;28;20079;-74
2023/11/23 00:45:14;;;;;;;2.30;0.68;;;;;;;-0.95;100.00;96865.59;1032535;28;20040;-74
2023/11/23 00:45:45;;;;;;;1.40;1.30;;;;;;;-1.03;100.00;96850.97;1026806;28;20056;-75
2023/11/23 00:46:15;;;;;;;1.17;1.08;;;;;;;-0.99;100.00;96861.75;1032872;28;20510;-75
2023/11/23 00:47:01;;;;;;;1.55;1.45;;;;;;;-0.99;100.00;96857.41;1030536;28;20088;-74
2023/11/23 00:47:31;;;;;;;1.40;1.28;;;;;;;-1.02;100.00;96865.44;1036769;28;20409;-73
2023/11/23 00:48:02;;;;;;;0.63;0.63;;;;;;;-1.05;100.00;96860.63;1040530;28;20022;-74
2023/11/23 00:48:32;;;;;;;1.08;1.08;;;;;;;-1.07;100.00;96854.03;1038772;28;20030;-73
2023/11/23 00:49:04;;;;;;;2.40;1.48;;;;;;;-1.09;100.00;96853.38;1038315;28;20692;-75
2023/11/23 00:49:35;;;;;;;1.60;0.64;;;;;;;-1.09;100.00;96855.97;1038373;28;20021;-74
2023/11/23 00:50:06;;;;;;;1.65;0.82;;;;;;;-1.15;100.00;96846.28;1034449;28;20026;-73
2023/11/23 00:50:36;;;;;;;1.50;1.40;;;;;;;-1.06;100.00;96863.38;1034929;28;20025;-73
2023/11/23 00:51:07;;;;;;;1.00;0.95;;;;;;;-1.09;100.00;96872.22;1034157;28;20061;-75
2023/11/23 00:51:37;;;;;;;0.45;0.45;;;;;;;-1.12;100.00;96869.97;1030008;28;20034;-75
2023/11/23 00:52:08;;;;;;;0.95;0.90;;;;;;;-1.18;100.00;96862.88;1034352;28;20763;-76
2023/11/23 00:52:38;;;;;;;0.50;0.50;;;;;;;-1.15;100.00;96869.47;1030537;28;20585;-74
2023/11/23 00:53:09;;;;;;;2.40;1.00;;;;;;;-1.18;100.00;96873.16;1034182;28;20026;-74
2023/11/23 00:53:39;;;;;;;2.67;1.75;;;;;;;-1.20;100.00;96864.81;1034221;28;20054;-75
2023/11/23 00:54:10;;;;;;;0.88;0.85;;;;;;;-1.20;100.00;96868.19;1026461;28;20023;-78
2023/11/23 00:54:41;;;;;;;2.64;1.70;;;;;;;-1.21;100.00;96876.91;1033599;28;20033;-75
2023/11/23 00:55:11;;;;;;;1.77;1.65;;;;;;;-1.22;100.00;96877.84;1034700;28;20022;-74
2023/11/23 00:55:41;;;;;;;1.52;1.42;;;;;;;-1.21;100.00;96876.06;1038283;28;20029;-75
2023/11/23 00:56:12;;;;;;;1.55;1.00;;;;;;;-1.23;100.00;96868.50;1034440;28;20421;-74
2023/11/23 00:56:52;;;;;;;0.65;0.30;;;;;;;-1.24;100.00;96878.94;1030533;28;20026;-74
2023/11/23 00:57:22;;;;;;;1.70;1.25;;;;;;;-1.23;100.00;96873.66;1035780;28;20033;-75
2023/11/23 00:57:52;;;;;;;1.95;1.85;;;;;;;-1.22;100.00;96870.13;1039769;28;20033;-74
2023/11/23 00:58:23;;;;;;;0.50;0.50;;;;;;;-1.19;100.00;96876.72;1039006;28;20044;-75
2023/11/23 00:58:54;;;;;;;1.13;1.13;;;;;;;-1.19;100.00;96869.78;1034402;28;20482;-75
2023/11/23 00:59:24;;;;;;;1.80;1.73;;;;;;;-1.17;100.00;96871.41;1030410;28;20901;-76
2023/11/23 00:59:55;;;;;;;0.77;0.77;;;;;;;-1.15;100.00;96872.06;1030285;28;20029;-76
2023/11/23 01:00:25;;;;;;;2.17;1.98;;;;;;;-1.16;100.00;96873.03;1037514;28;20021;-73
2023/11/23 01:00:56;;;;;;;2.20;1.63;;;;;;;-1.13;100.00;96873.50;1030185;28;20022;-73
2023/11/23 01:01:27;;;;;;;1.65;1.55;;;;;;;-1.08;100.00;96870.44;1025739;28;20035;-74
2023/11/23 01:02:00;;;;;;;7.58;1.22;;;;;;;-1.17;100.00;96848.22;1030281;28;20109;-73
2023/11/23 01:02:30;;;;;;;1.02;1.02;;;;;;;-1.08;100.00;96855.78;1031824;28;20032;-74
2023/11/23 01:03:01;;;;;;;3.65;1.60;;;;;;;-1.05;100.00;96859.81;1035046;28;20033;-74
2023/11/23 01:03:32;;;;;;;3.38;2.28;;;;;;;-1.04;100.00;96861.41;1034181;28;20022;-73
2023/11/23 01:04:02;;;;;;;2.17;1.95;;;;;;;-1.06;100.00;96850.50;1034449;28;20026;-74
2023/11/23 01:04:35;;;;;;;1.38;1.27;;;;;;;-1.04;100.00;96853.69;1030560;28;20033;-74
2023/11/23 01:05:06;;;;;;;0.64;0.64;;;;;;;-1.20;100.00;96824.41;1030676;28;20077;-74
2023/11/23 01:05:37;;;;;;;1.60;1.50;;;;;;;-1.01;100.00;96856.75;1038333;28;20203;-74
2023/11/23 01:06:07;;;;;;;0.77;0.77;;;;;;;-1.04;100.00;96844.22;1033096;28;20555;-73
2023/11/23 01:06:38;;;;;;;0.90;0.90;;;;;;;-0.95;100.00;96856.09;1034550;28;20021;-76
2023/11/23 01:07:08;;;;;;;1.08;0.60;;;;;;;-0.93;100.00;96847.44;1034937;28;20510;-75
2023/11/23 01:07:38;;;;;;;0.55;0.55;;;;;;;-0.97;100.00;96844.38;1030592;28;20541;-75
2023/11/23 01:08:09;;;;;;;2.80;1.40;;;;;;;-0.93;100.00;96855.94;1030327;28;20062;-75
2023/11/23 01:08:39;;;;;;;1.20;1.02;;;;;;;-0.90;100.00;96858.22;1034443;28;20034;-76
2023/11/23 01:09:10;;;;;;;1.33;1.33;;;;;;;-0.89;100.00;96857.22;1034379;28;20106;-75
2023/11/23 01:09:40;;;;;;;1.10;1.08;;;;;;;-0.88;100.00;96861.41;1034409;28;20030;-74
2023/11/23 01:10:11;;;;;;;0.45;0.45;;;;;;;-0.86;100.00;96869.78;1034395;28;20072;-75
2023/11/23 01:10:44;;;;;;;1.30;1.20;;;;;;;-1.00;100.00;96848.06;1030278;28;20027;-74
2023/11/23 01:11:15;;;;;;;2.80;1.34;;;;;;;-0.87;100.00;96862.22;1025872;28;20062;-75
2023/11/23 01:11:46;;;;;;;0.50;0.50;;;;;;;-0.94;100.00;96854.31;1030753;28;20030;-73
2023/11/23 01:12:16;;;;;;;3.03;1.15;;;;;;;-0.85;100.00;96860.28;1031517;28;20114;-76
2023/11/23 01:12:47;;;;;;;2.55;1.55;;;;;;;-0.83;100.00;96864.31;1028628;28;20026;-74
2023/11/23 01:13:18;;;;;;;0.92;0.84;;;;;;;-0.83;100.00;96869.47;1033467;28;20109;-74
2023/11/23 01:13:48;;;;;;;1.58;1.48;;;;;;;-0.84;100.00;96861.88;1034512;28;20033;-75
2023/11/23 01:14:19;;;;;;;0.15;0.15;;;;;;;-0.90;100.00;96852.25;1034565;28;20029;-75
2023/11/23 01:14:49;;;;;;;1.35;1.17;;;;;;;-0.93;100.00;96855.94;1038313;28;20021;-74
2023/11/23 01:15:20;;;;;;;1.83;1.67;;;;;;;-0.90;100.00;96855.63;1034298;28;20033;-75
2023/11/23 01:15:54;;;;;;;0.78;0.78;;;;;;;-0.87;100.00;96868.19;1035600;28;20135;-74
2023/11/23 01:16:25;;;;;;;0.73;0.52;;;;;;;-0.86;100.00;96874.94;1033689;28;20033;-76
2023/11/23 01:16:55;;;;;;;0.95;0.95;;;;;;;-0.85;100.00;96866.25;1030441;28;20056;-75
2023/11/23 01:17:25;;;;;;;2.38;1.67;;;;;;;-0.85;100.00;96855.94;1037123;28;20017;-74
2023/11/23 01:17:56;;;;;;;1.15;1.15;;;;;;;-0.85;100.00;96865.44;1038529;28;20052;-74
2023/11/23 01:18:26;;;;;;;1.13;1.02;;;;;;;-0.95;100.00;96855.31;1038503;28;20089;-75
2023/11/23 01:19:00;;;;;;;0.80;0.75;;;;;;;-0.94;100.00;96859.47;1038445;28;20389;-74
2023/11/23 01:19:30;;;;;;;4.92;1.80;;;;;;;-0.94;100.00;96864.63;1038859;28;20056;-74
2023/11/23 01:20:03;;;;;;;1.80;1.60;;;;;;;-0.90;100.00;96865.13;1034747;28;20822;-75
2023/11/23 01:20:34;;;;;;;1.50;1.22;;;;;;;-0.96;100.00;96866.59;1038190;28;20211;-74
2023/11/23 01:21:04;;;;;;;0.32;0.32;;;;;;;-0.91;100.00;96866.88;1034342;28;20099;-73
2023/11/23 01:21:35;;;;;;;1.40;1.38;;;;;;;-0.89;100.00;96861.59;1034481;28;20069;-75
2023/11/23 01:22:06;;;;;;;3.63;2.17;;;;;;;-0.93;100.00;96855.94;1034447;28;20029;-74
2023/11/23 01:22:36;;;;;;;1.08;0.82;;;;;;;-0.88;100.00;96861.41;1032130;28;20058;-75
2023/11/23 01:23:07;;;;;;;0.20;0.20;;;;;;;-0.85;100.00;96860.28;1034325;28;20018;-73
2023/11/23 01:23:37;;;;;;;1.77;0.95;;;;;;;-0.84;100.00;96862.72;1033420;28;20040;-74
2023/11/23 01:24:08;;;;;;;2.30;2.05;;;;;;;-0.89;100.00;96849.50;1034484;28;20457;-74
2023/11/23 01:24:39;;;;;;;0.98;0.90;;;;;;;-0.84;100.00;96859.31;1037300;28;20121;-75
2023/11/23 01:25:09;;;;;;;1.52;1.48;;;;;;;-0.84;100.00;96867.88;1037948;28;20128;-75
2023/11/23 01:25:40;;;;;;;2.28;2.03;;;;;;;-0.90;100.00;96853.06;1034448;28;20034;-75
2023/11/23 01:26:12;;;;;;;2.80;1.00;;;;;;;-0.82;100.00;96855.59;1030480;28;20026;-74
2023/11/23 01:26:43;;;;;;;0.42;0.42;;;;;;;-0.90;100.00;96844.53;1034446;28;20377;-76
2023/11/23 01:27:13;;;;;;;1.55;1.45;;;;;;;-0.82;100.00;96855.59;1034516;28;20624;-76
2023/11/23 01:27:43;;;;;;;3.38;1.50;;;;;;;-0.83;100.00;96856.59;1034205;28;20033;-76
2023/11/23 01:28:14;;;;;;;0.88;0.85;;;;;;;-0.81;100.00;96849.47;1038414;28;20037;-74
2023/11/23 01:28:44;;;;;;;0.88;0.88;;;;;;;-0.88;100.00;96833.06;1030310;28;20057;-77
2023/11/23 01:29:15;;;;;;;1.40;0.70;;;;;;;-0.79;100.00;96841.59;1030311;28;20026;-74
2023/11/23 01:29:45;;;;;;;0.70;0.70;;;;;;;-0.77;100.00;96848.22;1030089;28;20036;-76
2023/11/23 01:30:16;;;;;;;0.47;0.47;;;;;;;-0.76;100.00;96844.66;1034587;28;20018;-75
2023/11/23 01:30:46;;;;;;;1.60;1.50;;;;;;;-0.78;100.00;96845.78;1038200;28;20036;-75
2023/11/23 01:31:17;;;;;;;0.63;0.63;;;;;;;-0.81;100.00;96839.19;1038085;28;20226;-75
2023/11/23 01:31:48;;;;;;;1.05;1.05;;;;;;;-0.80;100.00;96840.81;1042558;28;20060;-75
2023/11/23 01:32:18;;;;;;;1.58;1.48;;;;;;;-0.81;100.00;96839.19;1034662;28;20026;-74
2023/11/23 01:32:49;;;;;;;1.05;1.05;;;;;;;-0.83;100.00;96842.91;1025848;28;20522;-75
2023/11/23 01:33:22;;;;;;;1.52;1.40;;;;;;;-0.91;100.00;96841.13;1034459;28;20124;-74
2023/11/23 01:33:53;;;;;;;0.76;0.76;;;;;;;-0.84;100.00;96846.44;1034681;28;20485;-74
2023/11/23 01:34:23;;;;;;;1.92;1.20;;;;;;;-0.87;100.00;96842.44;1036333;28;20030;-74
2023/11/23 01:34:54;;;;;;;0.95;0.93;;;;;;;-0.88;100.00;96840.00;1039369;28;20136;-73
2023/11/23 01:35:26;;;;;;;7.08;1.94;;;;;;;-0.91;100.00;96841.13;1031582;28;20040;-75
2023/11/23 01:35:56;;;;;;;4.34;1.36;;;;;;;-0.96;100.00;96838.25;1029138;28;20125;-75
2023/11/23 01:36:27;;;;;;;1.02;0.98;;;;;;;-0.95;100.00;96837.28;1026867;28;20027;-74
2023/11/23 01:36:57;;;;;;;2.15;1.50;;;;;;;-1.04;100.00;96825.34;1027436;28;20506;-75
2023/11/23 01:37:28;;;;;;;1.73;1.48;;;;;;;-0.98;100.00;96840.16;1027284;28;20269;-75
2023/11/23 01:37:58;;;;;;;1.08;1.05;;;;;;;-1.08;100.00;96830.03;1038405;28;20030;-74
2023/11/23 01:38:29;;;;;;;1.55;1.45;;;;;;;-1.05;100.00;96842.59;1026595;28;20023;-73
2023/11/23 01:38:59;;;;;;;3.55;2.65;;;;;;;-1.03;100.00;96843.25;1023122;28;20130;-74
2023/11/23 01:39:30;;;;;;;0.40;0.40;;;;;;;-1.02;100.00;96841.47;1028324;28;20031;-73
2023/11/23 01:40:00;;;;;;;8.63;2.05;;;;;;;-1.00;100.00;96842.91;1031373;28;20030;-74
2023/11/23 01:40:31;;;;;;;1.92;1.38;;;;;;;-1.12;100.00;96827.94;1041375;28;20064;-75
2023/11/23 01:41:04;;;;;;;1.35;0.65;;;;;;;-1.13;100.00;96829.72;1047444;28;20028;-73
2023/11/23 01:41:34;;;;;;;2.20;1.98;;;;;;;-1.04;100.00;96846.78;1045296;28;20670;-74
2023/11/23 01:42:05;;;;;;;4.13;1.50;;;;;;;-1.00;100.00;96847.28;1039285;28;20029;-75
2023/11/23 01:42:35;;;;;;;1.50;1.40;;;;;;;-0.99;100.00;96843.72;1039162;28;20120;-74
2023/11/23 01:43:08;;;;;;;1.02;1.02;;;;;;;-1.03;100.00;96839.88;1035316;28;20030;-75
2023/11/23 01:43:38;;;;;;;1.14;0.70;;;;;;;-1.01;100.00;96846.44;1033886;28;20021;-76
2023/11/23 01:44:10;;;;;;;0.60;0.60;;;;;;;-1.08;100.00;96831.81;1035608;28;20018;-76
2023/11/23 01:44:40;;;;;;;1.14;1.10;;;;;;;-1.06;100.00;96830.69;1035157;28;20030;-76
2023/11/23 01:45:11;;;;;;;1.48;1.35;;;;;;;-1.00;100.00;96844.69;1033699;28;20637;-76
2023/11/23 01:45:42;;;;;;;1.54;1.28;;;;;;;-1.03;100.00;96838.09;1027210;28;20035;-73
2023/11/23 01:46:13;;;;;;;0.93;0.93;;;;;;;-1.03;100.00;96843.25;1027290;28;20031;-73
2023/11/23 01:46:43;;;;;;;3.22;1.25;;;;;;;-1.03;100.00;96837.28;1035187;28;20688;-74
2023/11/23 01:47:14;;;;;;;2.95;1.73;;;;;;;-1.09;100.00;96830.22;1035411;28;20081;-73
2023/11/23 01:47:44;;;;;;;1.88;1.77;;;;;;;-1.05;100.00;96834.84;1034910;28;20121;-74
2023/11/23 01:48:15;;;;;;;1.45;1.35;;;;;;;-1.08;100.00;96836.97;1027277;28;20019;-73
2023/11/23 01:48:45;;;;;;;3.20;1.83;;;;;;;-1.14;100.00;96827.28;1034391;28;20169;-73
2023/11/23 01:49:16;;;;;;;1.67;1.58;;;;;;;-1.27;100.00;96810.59;1027458;28;20059;-76
2023/11/23 01:49:46;;;;;;;1.33;1.27;;;;;;;-1.09;100.00;96832.78;1030566;28;20030;-74
2023/11/23 01:50:17;;;;;;;4.35;3.00;;;;;;;-1.16;100.00;96826.69;1031079;28;20528;-76
2023/11/23 01:50:47;;;;;;;0.95;0.90;;;;;;;-1.13;100.00;96834.06;1039183;28;20168;-74
2023/11/23 01:51:17;;;;;;;3.53;1.33;;;;;;;-1.15;100.00;96838.56;1034669;28;20021;-75
2023/11/23 01:51:48;;;;;;;2.25;1.73;;;;;;;-1.20;100.00;96832.16;1039047;28;20619;-74
2023/11/23 01:52:18;;;;;;;1.88;1.77;;;;;;;-1.13;100.00;96836.66;1035144;28;20022;-75
2023/11/23 01:52:49;;;;;;;3.20;2.92;;;;;;;-1.09;100.00;96840.50;1034927;28;20034;-74
2023/11/23 01:53:19;;;;;;;1.67;0.80;;;;;;;-1.11;100.00;96839.84;1035196;28;20034;-74
2023/11/23 01:53:50;;;;;;;1.20;1.10;;;;;;;-1.17;100.00;96831.03;1039054;28;20037;-73
2023/11/23 01:54:23;;;;;;;9.63;2.17;;;;;;;-1.12;100.00;96833.09;1035103;28;20022;-75
2023/11/23 01:54:53;;;;;;;0.26;0.26;;;;;;;-1.05;100.00;96842.59;1030864;28;20045;-73
2023/11/23 01:55:24;;;;;;;2.35;1.60;;;;;;;-1.07;100.00;96841.97;1031213;28;20037;-74
2023/11/23 01:55:55;;;;;;;1.67;1.58;;;;;;;-1.08;100.00;96839.53;1035095;28;20025;-74
2023/11/23 01:56:26;;;;;;;1.90;1.80;;;;;;;-1.04;100.00;96845.97;1038988;28;20018;-75
2023/11/23 01:56:56;;;;;;;4.90;1.85;;;;;;;-1.05;100.00;96845.16;1035072;28;20021;-75
2023/11/23 01:57:27;;;;;;;0.63;0.63;;;;;;;-1.11;100.00;96835.50;1035116;28;20076;-74
2023/11/23 01:57:58;;;;;;;1.18;1.18;;;;;;;-1.06;100.00;96847.91;1033920;28;20108;-74
2023/11/23 01:58:29;;;;;;;3.00;1.83;;;;;;;-1.06;100.00;96847.91;1028011;28;20609;-75
2023/11/23 01:59:00;;;;;;;1.48;1.38;;;;;;;-1.02;100.00;96844.03;1031125;28;20053;-75
2023/11/23 01:59:34;;;;;;;2.38;1.86;;;;;;;-1.06;100.00;96840.19;1029503;28;20030;-74
2023/11/23 02:00:05;;;;;;;0.72;0.46;;;;;;;-1.11;100.00;96830.34;1026839;28;20035;-75
2023/11/23 02:00:36;;;;;;;1.18;1.18;;;;;;;-1.07;100.00;96839.38;1031158;28;20064;-75
2023/11/23 02:01:07;;;;;;;1.16;0.96;;;;;;;-1.04;100.00;96846.78;1029335;28;20030;-74
2023/11/23 02:01:38;;;;;;;1.45;1.30;;;;;;;-1.03;100.00;96845.81;1022697;28;20051;-76
2023/11/23 02:02:11;;;;;;;0.25;0.25;;;;;;;-1.12;100.00;96825.38;1027745;28;20022;-75
2023/11/23 02:02:45;;;;;;;2.30;1.98;;;;;;;-1.02;100.00;96838.88;1030199;28;20038;-76
2023/11/23 02:03:17;;;;;;;2.80;1.78;;;;;;;-0.97;100.00;96849.53;1026930;28;20410;-75
2023/11/23 02:03:48;;;;;;;1.90;1.74;;;;;;;-1.01;100.00;96845.63;1033795;28;20580;-74
2023/11/23 02:04:18;;;;;;;8.30;1.40;;;;;;;-0.96;100.00;96851.13;1035032;28;20037;-74
2023/11/23 02:04:49;;;;;;;1.90;1.80;;;;;;;-0.98;100.00;96851.28;1035367;28;20265;-75
2023/11/23 02:05:21;;;;;;;4.53;2.17;;;;;;;-0.91;100.00;96846.28;1035204;28;20021;-75
2023/11/23 02:05:52;;;;;;;0.44;0.44;;;;;;;-0.88;100.00;96851.09;1031325;28;20136;-75
2023/11/23 02:06:22;;;;;;;1.88;1.48;;;;;;;-0.85;100.00;96850.78;1031328;28;20628;-74
2023/11/23 02:06:53;;;;;;;1.15;1.05;;;;;;;-0.87;100.00;96847.56;1027868;28;20019;-74
2023/11/23 02:07:23;;;;;;;0.82;0.28;;;;;;;-0.90;100.00;96847.91;1028348;28;20030;-73
2023/11/23 02:07:53;;;;;;;0.90;0.90;;;;;;;-0.83;100.00;96854.00;1031678;28;20394;-75
2023/11/23 02:08:24;;;;;;;0.75;0.75;;;;;;;-0.80;100.00;96852.88;1035489;28;20092;-77
2023/11/23 02:08:54;;;;;;;1.90;1.75;;;;;;;-0.82;100.00;96845.31;1031342;28;20030;-73
2023/11/23 02:09:26;;;;;;;3.92;1.70;;;;;;;-0.84;100.00;96839.53;1035353;28;20057;-74
2023/11/23 02:09:56;;;;;;;3.90;1.08;;;;;;;-0.78;100.00;96848.34;1039133;28;20041;-74
2023/11/23 02:10:27;;;;;;;2.13;1.38;;;;;;;-0.83;100.00;96838.56;1039346;28;20056;-74
2023/11/23 02:10:58;;;;;;;3.60;2.20;;;;;;;-0.77;100.00;96848.22;1027138;28;20018;-73
2023/11/23 02:11:28;;;;;;;1.55;0.80;;;;;;;-0.83;100.00;96838.56;1030782;28;20029;-73
2023/11/23 02:12:01;;;;;;;3.15;2.13;;;;;;;-0.77;100.00;96850.78;1027110;28;20022;-74
2023/11/23 02:12:31;;;;;;;1.06;1.06;;;;;;;-0.79;100.00;96836.44;1025509;28;20066;-75
2023/11/23 02:13:03;;;;;;;1.05;1.05;;;;;;;-0.75;100.00;96846.25;1027387;28;20014;-73
2023/11/23 02:13:33;;;;;;;2.66;0.68;;;;;;;-0.79;100.00;96839.81;1035305;28;20025;-75
2023/11/23 02:14:06;;;;;;;0.68;0.68;;;;;;;-0.77;100.00;96834.50;1035163;28;20024;-74
2023/11/23 02:14:37;;;;;;;0.40;0.40;;;;;;;-0.68;100.00;96843.03;1031281;28;20067;-74
2023/11/23 02:15:08;;;;;;;0.47;0.28;;;;;;;-0.75;100.00;96833.38;1031224;28;20585;-73
2023/11/23 02:15:39;;;;;;;1.82;1.72;;;;;;;-0.69;100.00;96844.00;1031112;28;20098;-74
2023/11/23 02:16:10;;;;;;;2.47;2.28;;;;;;;-0.96;100.00;96812.50;1031474;28;20449;-75
2023/11/23 02:16:40;;;;;;;1.13;1.05;;;;;;;-0.76;100.00;96836.94;1035295;28;20036;-74
2023/11/23 02:17:17;;;;;;;1.05;1.05;;;;;;;-0.73;100.00;96843.53;1031361;28;20573;-75
2023/11/23 02:18:00;;;;;;;3.04;1.92;;;;;;;-0.72;100.00;96832.25;1032032;28;20564;-74
2023/11/23 02:18:39;;;;;;;0.36;0.36;;;;;;;-0.74;100.00;96842.72;1039576;28;20096;-75
2023/11/23 02:19:09;;;;;;;0.34;0.34;;;;;;;-0.71;100.00;96833.84;1038851;28;20044;-76
2023/11/23 02:19:40;;;;;;;0.55;0.55;;;;;;;-0.71;100.00;96842.38;1042419;28;20468;-74
2023/11/23 02:20:11;;;;;;;1.67;1.55;;;;;;;-0.68;100.00;96835.28;1039057;28;20072;-76
2023/11/23 02:20:46;;;;;;;2.28;2.17;;;;;;;-0.73;100.00;96839.19;1039472;28;20033;-75
2023/11/23 02:21:16;;;;;;;1.50;1.40;;;;;;;-0.78;100.00;96823.38;1038659;28;20029;-73
2023/11/23 02:21:47;;;;;;;0.98;0.98;;;;;;;-0.69;100.00;96841.44;1035809;28;20025;-74
2023/11/23 02:22:17;;;;;;;2.30;1.23;;;;;;;-1.37;100.00;96737.88;1055969;22;20025;-67
2023/11/23 02:22:48;;;;;;;4.32;1.35;;;;;;;-0.77;100.00;96825.03;1021495;29;20051;-73
2023/11/23 02:23:19;;;;;;;1.83;1.27;;;;;;;-0.71;100.00;96839.81;1027631;28;20050;-74
2023/11/23 02:23:50;;;;;;;0.68;0.68;;;;;;;-0.71;100.00;96832.06;1031394;28;20513;-73
2023/11/23 02:24:20;;;;;;;1.76;1.46;;;;;;;-0.62;100.00;96829.50;1035485;28;20116;-75
2023/11/23 02:24:51;;;;;;;1.80;1.70;;;;;;;-0.64;100.00;96832.22;1035578;28;20520;-74